sensor_id;sensor_type;location;lat;lon;timestamp;temperature;humidity
8947;DHT22;4508;48.790;9.028;2023-03-04T00:00:38;0.60;99.90
8947;DHT22;4508;48.790;9.028;2023-03-04T00:03:07;0.60;99.90
8947;DHT22;4508;48.790;9.028;2023-03-04T00:05:35;0.50;99.90
8947;DHT22;4508;48.790;9.028;2023-03-04T00:08:01;0.50;99.90
8947;DHT22;4508;48.790;9.028;2023-03-04T00:10:28;0.40;99.90
8947;DHT22;4508;48.790;9.028;2023-03-04T00:12:56;0.40;99.90
8947;DHT22;4508;48.790;9.028;2023-03-04T00:15:22;0.30;99.90
8947;DHT22;4508;48.790;9.028;2023-03-04T00:17:49;0.30;99.90
8947;DHT22;4508;48.790;9.028;2023-03-04T00:20:16;0.30;99.90
8947;DHT22;4508;48.790;9.028;2023-03-04T00:22:42;0.30;99.90
8947;DHT22;4508;48.790;9.028;2023-03-04T00:25:09;0.10;99.90
8947;DHT22;4508;48.790;9.028;2023-03-04T00:27:35;0.10;99.90
8947;DHT22;4508;48.790;9.028;2023-03-04T00:30:04;0.20;99.90
8947;DHT22;4508;48.790;9.028;2023-03-04T00:32:30;0.10;99.90
8947;DHT22;4508;48.790;9.028;2023-03-04T00:34:57;0.20;99.90
8947;DHT22;4508;48.790;9.028;2023-03-04T00:37:24;0.20;99.90
8947;DHT22;4508;48.790;9.028;2023-03-04T00:39:50;0.30;99.90
8947;DHT22;4508;48.790;9.028;2023-03-04T00:42:17;0.20;99.90
8947;DHT22;4508;48.790;9.028;2023-03-04T00:44:43;0.30;99.90
8947;DHT22;4508;48.790;9.028;2023-03-04T00:47:11;0.10;99.90
8947;DHT22;4508;48.790;9.028;2023-03-04T00:49:38;0.20;99.90
8947;DHT22;4508;48.790;9.028;2023-03-04T00:52:04;0.30;99.90
8947;DHT22;4508;48.790;9.028;2023-03-04T00:54:31;0.30;99.90
8947;DHT22;4508;48.790;9.028;2023-03-04T00:56:57;0.30;99.90
8947;DHT22;4508;48.790;9.028;2023-03-04T00:59:24;0.30;99.90
8947;DHT22;4508;48.790;9.028;2023-03-04T01:01:50;0.30;99.90
8947;DHT22;4508;48.790;9.028;2023-03-04T01:04:18;0.20;99.90
8947;DHT22;4508;48.790;9.028;2023-03-04T01:06:45;0.20;99.90
8947;DHT22;4508;48.790;9.028;2023-03-04T01:09:11;0.10;99.90
8947;DHT22;4508;48.790;9.028;2023-03-04T01:11:38;0.10;99.90
8947;DHT22;4508;48.790;9.028;2023-03-04T01:14:04;0.10;99.90
8947;DHT22;4508;48.790;9.028;2023-03-04T01:16:31;0.10;99.90
8947;DHT22;4508;48.790;9.028;2023-03-04T01:18:57;-0.10;99.90
8947;DHT22;4508;48.790;9.028;2023-03-04T01:21:25;-0.10;99.90
8947;DHT22;4508;48.790;9.028;2023-03-04T01:23:52;-0.10;99.90
8947;DHT22;4508;48.790;9.028;2023-03-04T01:26:18;-0.10;99.90
8947;DHT22;4508;48.790;9.028;2023-03-04T01:28:45;-0.10;99.90
8947;DHT22;4508;48.790;9.028;2023-03-04T01:31:11;-0.10;99.90
8947;DHT22;4508;48.790;9.028;2023-03-04T01:33:38;-0.20;99.90
8947;DHT22;4508;48.790;9.028;2023-03-04T01:36:05;-0.20;99.90
8947;DHT22;4508;48.790;9.028;2023-03-04T01:38:33;-0.30;99.90
8947;DHT22;4508;48.790;9.028;2023-03-04T01:40:59;-0.30;99.90
8947;DHT22;4508;48.790;9.028;2023-03-04T01:43:27;-0.40;99.90
8947;DHT22;4508;48.790;9.028;2023-03-04T01:45:54;-0.40;99.90
8947;DHT22;4508;48.790;9.028;2023-03-04T01:48:23;-0.50;99.90
8947;DHT22;4508;48.790;9.028;2023-03-04T01:50:51;-0.40;99.90
8947;DHT22;4508;48.790;9.028;2023-03-04T01:53:19;-0.40;99.90
8947;DHT22;4508;48.790;9.028;2023-03-04T01:55:47;-0.20;99.90
8947;DHT22;4508;48.790;9.028;2023-03-04T01:58:14;-0.30;99.90
8947;DHT22;4508;48.790;9.028;2023-03-04T02:00:41;-0.30;99.90
8947;DHT22;4508;48.790;9.028;2023-03-04T02:03:08;-0.20;99.90
8947;DHT22;4508;48.790;9.028;2023-03-04T02:05:37;-0.20;99.90
8947;DHT22;4508;48.790;9.028;2023-03-04T02:08:04;-0.10;99.90
8947;DHT22;4508;48.790;9.028;2023-03-04T02:10:31;-0.10;99.90
8947;DHT22;4508;48.790;9.028;2023-03-04T02:12:59;-0.20;99.90
8947;DHT22;4508;48.790;9.028;2023-03-04T02:15:26;-0.20;99.90
8947;DHT22;4508;48.790;9.028;2023-03-04T02:17:53;-0.20;99.90
8947;DHT22;4508;48.790;9.028;2023-03-04T02:20:26;-0.10;99.90
8947;DHT22;4508;48.790;9.028;2023-03-04T02:23:00;-0.20;99.90
8947;DHT22;4508;48.790;9.028;2023-03-04T02:25:28;-0.20;99.90
8947;DHT22;4508;48.790;9.028;2023-03-04T02:27:57;-0.40;99.90
8947;DHT22;4508;48.790;9.028;2023-03-04T02:30:24;-0.60;99.90
8947;DHT22;4508;48.790;9.028;2023-03-04T02:32:51;-0.50;99.90
8947;DHT22;4508;48.790;9.028;2023-03-04T02:35:17;-0.50;99.90
8947;DHT22;4508;48.790;9.028;2023-03-04T02:37:44;-0.70;99.90
8947;DHT22;4508;48.790;9.028;2023-03-04T02:40:12;-0.60;99.90
8947;DHT22;4508;48.790;9.028;2023-03-04T02:42:41;-0.50;99.90
8947;DHT22;4508;48.790;9.028;2023-03-04T02:47:51;-0.40;99.90
8947;DHT22;4508;48.790;9.028;2023-03-04T02:50:17;-0.30;99.90
8947;DHT22;4508;48.790;9.028;2023-03-04T02:52:44;-0.40;99.90
8947;DHT22;4508;48.790;9.028;2023-03-04T02:55:11;-0.30;99.90
8947;DHT22;4508;48.790;9.028;2023-03-04T02:57:37;-0.30;99.90
8947;DHT22;4508;48.790;9.028;2023-03-04T03:00:04;-0.50;99.90
8947;DHT22;4508;48.790;9.028;2023-03-04T03:02:31;-0.50;99.90
8947;DHT22;4508;48.790;9.028;2023-03-04T03:04:59;-0.60;99.90
8947;DHT22;4508;48.790;9.028;2023-03-04T03:07:25;-0.70;99.90
8947;DHT22;4508;48.790;9.028;2023-03-04T03:09:52;-0.50;99.90
8947;DHT22;4508;48.790;9.028;2023-03-04T03:12:18;-0.60;99.90
8947;DHT22;4508;48.790;9.028;2023-03-04T03:14:45;-0.60;99.90
8947;DHT22;4508;48.790;9.028;2023-03-04T03:17:11;-0.60;99.90
8947;DHT22;4508;48.790;9.028;2023-03-04T03:19:38;-0.60;99.90
8947;DHT22;4508;48.790;9.028;2023-03-04T03:22:06;-0.50;99.90
8947;DHT22;4508;48.790;9.028;2023-03-04T03:24:32;-0.50;99.90
8947;DHT22;4508;48.790;9.028;2023-03-04T03:26:59;-0.40;99.90
8947;DHT22;4508;48.790;9.028;2023-03-04T03:29:25;-0.50;99.90
8947;DHT22;4508;48.790;9.028;2023-03-04T03:31:52;-0.60;99.90
8947;DHT22;4508;48.790;9.028;2023-03-04T03:34:18;-0.60;99.90
8947;DHT22;4508;48.790;9.028;2023-03-04T03:36:45;-0.60;99.90
8947;DHT22;4508;48.790;9.028;2023-03-04T03:39:13;-0.70;99.90
8947;DHT22;4508;48.790;9.028;2023-03-04T03:41:39;-0.70;99.90
8947;DHT22;4508;48.790;9.028;2023-03-04T03:44:06;-0.60;99.90
8947;DHT22;4508;48.790;9.028;2023-03-04T03:46:33;-0.70;99.90
8947;DHT22;4508;48.790;9.028;2023-03-04T03:49:00;-0.70;99.90
8947;DHT22;4508;48.790;9.028;2023-03-04T03:51:26;-0.80;99.90
8947;DHT22;4508;48.790;9.028;2023-03-04T03:53:53;-0.70;99.90
8947;DHT22;4508;48.790;9.028;2023-03-04T03:56:21;-0.70;99.90
8947;DHT22;4508;48.790;9.028;2023-03-04T03:58:47;-0.80;99.90
8947;DHT22;4508;48.790;9.028;2023-03-04T04:01:14;-0.80;99.90
8947;DHT22;4508;48.790;9.028;2023-03-04T04:03:40;-0.80;99.90
8947;DHT22;4508;48.790;9.028;2023-03-04T04:06:07;-0.80;99.90
8947;DHT22;4508;48.790;9.028;2023-03-04T04:08:33;-0.80;99.90
8947;DHT22;4508;48.790;9.028;2023-03-04T04:11:00;-0.90;99.90
8947;DHT22;4508;48.790;9.028;2023-03-04T04:13:28;-0.90;99.90
8947;DHT22;4508;48.790;9.028;2023-03-04T04:15:54;-0.90;99.90
8947;DHT22;4508;48.790;9.028;2023-03-04T04:18:21;-0.80;99.90
8947;DHT22;4508;48.790;9.028;2023-03-04T04:20:48;-0.90;99.90
8947;DHT22;4508;48.790;9.028;2023-03-04T04:23:14;-1.10;99.90
8947;DHT22;4508;48.790;9.028;2023-03-04T04:25:41;-1.10;99.90
8947;DHT22;4508;48.790;9.028;2023-03-04T04:28:07;-0.90;99.90
8947;DHT22;4508;48.790;9.028;2023-03-04T04:30:35;-0.90;99.90
8947;DHT22;4508;48.790;9.028;2023-03-04T04:33:02;-1.00;99.90
8947;DHT22;4508;48.790;9.028;2023-03-04T04:35:29;-1.10;99.90
8947;DHT22;4508;48.790;9.028;2023-03-04T04:37:55;-1.00;99.90
8947;DHT22;4508;48.790;9.028;2023-03-04T04:40:22;-1.00;99.90
8947;DHT22;4508;48.790;9.028;2023-03-04T04:42:49;-1.00;99.90
8947;DHT22;4508;48.790;9.028;2023-03-04T04:45:15;-1.00;99.90
8947;DHT22;4508;48.790;9.028;2023-03-04T04:47:43;-1.10;99.90
8947;DHT22;4508;48.790;9.028;2023-03-04T04:50:10;-1.00;99.90
8947;DHT22;4508;48.790;9.028;2023-03-04T04:52:37;-1.00;99.90
8947;DHT22;4508;48.790;9.028;2023-03-04T04:55:03;-1.00;99.90
8947;DHT22;4508;48.790;9.028;2023-03-04T04:57:30;-1.10;99.90
8947;DHT22;4508;48.790;9.028;2023-03-04T04:59:56;-1.10;99.90
8947;DHT22;4508;48.790;9.028;2023-03-04T05:02:23;-1.20;99.90
8947;DHT22;4508;48.790;9.028;2023-03-04T05:04:51;-1.20;99.90
8947;DHT22;4508;48.790;9.028;2023-03-04T05:07:17;-1.20;99.90
8947;DHT22;4508;48.790;9.028;2023-03-04T05:09:44;-1.30;99.90
8947;DHT22;4508;48.790;9.028;2023-03-04T05:12:11;-1.50;99.90
8947;DHT22;4508;48.790;9.028;2023-03-04T05:14:37;-1.50;99.90
8947;DHT22;4508;48.790;9.028;2023-03-04T05:17:04;-1.40;99.90
8947;DHT22;4508;48.790;9.028;2023-03-04T05:19:30;-1.40;99.90
8947;DHT22;4508;48.790;9.028;2023-03-04T05:21:58;-1.30;99.90
8947;DHT22;4508;48.790;9.028;2023-03-04T05:24:25;-1.20;99.90
8947;DHT22;4508;48.790;9.028;2023-03-04T05:26:51;-1.20;99.90
8947;DHT22;4508;48.790;9.028;2023-03-04T05:29:18;-1.40;99.90
8947;DHT22;4508;48.790;9.028;2023-03-04T05:31:44;-1.40;99.90
8947;DHT22;4508;48.790;9.028;2023-03-04T05:34:11;-1.50;99.90
8947;DHT22;4508;48.790;9.028;2023-03-04T05:36:37;-1.60;99.90
8947;DHT22;4508;48.790;9.028;2023-03-04T05:39:05;-1.50;99.90
8947;DHT22;4508;48.790;9.028;2023-03-04T05:41:32;-1.50;99.90
8947;DHT22;4508;48.790;9.028;2023-03-04T05:43:58;-1.70;99.90
8947;DHT22;4508;48.790;9.028;2023-03-04T05:46:25;-1.50;99.90
8947;DHT22;4508;48.790;9.028;2023-03-04T05:48:51;-1.60;99.90
8947;DHT22;4508;48.790;9.028;2023-03-04T05:51:18;-1.60;99.90
8947;DHT22;4508;48.790;9.028;2023-03-04T05:53:44;-1.70;99.90
8947;DHT22;4508;48.790;9.028;2023-03-04T05:56:13;-1.70;99.90
8947;DHT22;4508;48.790;9.028;2023-03-04T05:58:40;-1.80;99.90
8947;DHT22;4508;48.790;9.028;2023-03-04T06:01:07;-1.70;99.90
8947;DHT22;4508;48.790;9.028;2023-03-04T06:03:34;-1.70;99.90
8947;DHT22;4508;48.790;9.028;2023-03-04T06:06:00;-1.60;99.90
8947;DHT22;4508;48.790;9.028;2023-03-04T06:08:27;-1.70;99.90
8947;DHT22;4508;48.790;9.028;2023-03-04T06:10:54;-1.70;99.90
8947;DHT22;4508;48.790;9.028;2023-03-04T06:13:22;-1.90;99.90
8947;DHT22;4508;48.790;9.028;2023-03-04T06:15:52;-1.70;99.90
8947;DHT22;4508;48.790;9.028;2023-03-04T06:18:19;-1.70;99.90
8947;DHT22;4508;48.790;9.028;2023-03-04T06:20:45;-1.70;99.90
8947;DHT22;4508;48.790;9.028;2023-03-04T06:23:12;-1.60;99.90
8947;DHT22;4508;48.790;9.028;2023-03-04T06:25:38;-1.50;99.90
8947;DHT22;4508;48.790;9.028;2023-03-04T06:28:05;-1.40;99.90
8947;DHT22;4508;48.790;9.028;2023-03-04T06:30:33;-1.20;99.90
8947;DHT22;4508;48.790;9.028;2023-03-04T06:32:59;-1.10;99.90
8947;DHT22;4508;48.790;9.028;2023-03-04T06:35:26;-1.10;99.90
8947;DHT22;4508;48.790;9.028;2023-03-04T06:37:52;-1.00;99.90
8947;DHT22;4508;48.790;9.028;2023-03-04T06:40:19;-1.10;99.90
8947;DHT22;4508;48.790;9.028;2023-03-04T06:42:46;-1.30;99.90
8947;DHT22;4508;48.790;9.028;2023-03-04T06:45:12;-1.20;99.90
8947;DHT22;4508;48.790;9.028;2023-03-04T06:47:40;-1.10;99.90
8947;DHT22;4508;48.790;9.028;2023-03-04T06:50:07;-1.00;99.90
8947;DHT22;4508;48.790;9.028;2023-03-04T06:52:36;-0.90;99.90
8947;DHT22;4508;48.790;9.028;2023-03-04T06:55:03;-0.80;99.90
8947;DHT22;4508;48.790;9.028;2023-03-04T06:57:29;-0.70;99.90
8947;DHT22;4508;48.790;9.028;2023-03-04T06:59:56;-0.50;99.90
8947;DHT22;4508;48.790;9.028;2023-03-04T07:02:23;-0.40;99.90
8947;DHT22;4508;48.790;9.028;2023-03-04T07:04:51;-0.50;99.90
8947;DHT22;4508;48.790;9.028;2023-03-04T07:07:17;-0.40;99.90
8947;DHT22;4508;48.790;9.028;2023-03-04T07:09:44;-0.30;99.90
8947;DHT22;4508;48.790;9.028;2023-03-04T07:12:10;-0.50;99.90
8947;DHT22;4508;48.790;9.028;2023-03-04T07:14:37;-0.70;99.90
8947;DHT22;4508;48.790;9.028;2023-03-04T07:17:03;-0.80;99.90
8947;DHT22;4508;48.790;9.028;2023-03-04T07:19:30;-0.80;99.90
8947;DHT22;4508;48.790;9.028;2023-03-04T07:21:58;-0.80;99.90
8947;DHT22;4508;48.790;9.028;2023-03-04T07:24:24;-0.60;99.90
8947;DHT22;4508;48.790;9.028;2023-03-04T07:26:51;-0.40;99.90
8947;DHT22;4508;48.790;9.028;2023-03-04T07:29:17;-0.50;99.90
8947;DHT22;4508;48.790;9.028;2023-03-04T07:31:44;-0.20;99.90
8947;DHT22;4508;48.790;9.028;2023-03-04T07:34:11;-0.30;99.90
8947;DHT22;4508;48.790;9.028;2023-03-04T07:36:38;-0.20;99.90
8947;DHT22;4508;48.790;9.028;2023-03-04T07:39:06;0.00;99.90
8947;DHT22;4508;48.790;9.028;2023-03-04T07:41:32;0.30;99.90
8947;DHT22;4508;48.790;9.028;2023-03-04T07:44:00;0.20;99.90
8947;DHT22;4508;48.790;9.028;2023-03-04T07:46:27;0.70;99.90
8947;DHT22;4508;48.790;9.028;2023-03-04T07:48:54;0.60;99.90
8947;DHT22;4508;48.790;9.028;2023-03-04T07:51:21;0.60;99.90
8947;DHT22;4508;48.790;9.028;2023-03-04T07:53:49;0.70;99.90
8947;DHT22;4508;48.790;9.028;2023-03-04T07:56:17;0.40;99.90
8947;DHT22;4508;48.790;9.028;2023-03-04T07:58:44;0.20;99.90
8947;DHT22;4508;48.790;9.028;2023-03-04T08:01:12;0.60;99.90
8947;DHT22;4508;48.790;9.028;2023-03-04T08:03:38;0.50;99.90
8947;DHT22;4508;48.790;9.028;2023-03-04T08:06:05;0.60;99.90
8947;DHT22;4508;48.790;9.028;2023-03-04T08:08:32;0.40;99.90
8947;DHT22;4508;48.790;9.028;2023-03-04T08:10:59;0.10;99.90
8947;DHT22;4508;48.790;9.028;2023-03-04T08:13:27;0.30;99.90
8947;DHT22;4508;48.790;9.028;2023-03-04T08:15:54;0.50;99.90
8947;DHT22;4508;48.790;9.028;2023-03-04T08:18:21;0.80;99.90
8947;DHT22;4508;48.790;9.028;2023-03-04T08:20:47;0.60;99.90
8947;DHT22;4508;48.790;9.028;2023-03-04T08:23:14;0.30;99.90
8947;DHT22;4508;48.790;9.028;2023-03-04T08:25:41;0.30;99.90
8947;DHT22;4508;48.790;9.028;2023-03-04T08:28:08;0.20;99.90
8947;DHT22;4508;48.790;9.028;2023-03-04T08:30:35;0.00;99.90
8947;DHT22;4508;48.790;9.028;2023-03-04T08:33:02;0.50;99.90
8947;DHT22;4508;48.790;9.028;2023-03-04T08:35:29;0.40;99.90
8947;DHT22;4508;48.790;9.028;2023-03-04T08:37:55;0.30;99.90
8947;DHT22;4508;48.790;9.028;2023-03-04T08:40:22;0.10;99.90
8947;DHT22;4508;48.790;9.028;2023-03-04T08:42:50;0.50;99.90
8947;DHT22;4508;48.790;9.028;2023-03-04T08:45:17;0.90;99.90
8947;DHT22;4508;48.790;9.028;2023-03-04T08:47:45;0.50;99.90
8947;DHT22;4508;48.790;9.028;2023-03-04T08:50:11;0.80;99.90
8947;DHT22;4508;48.790;9.028;2023-03-04T08:52:38;0.40;99.90
8947;DHT22;4508;48.790;9.028;2023-03-04T08:55:04;0.50;99.90
8947;DHT22;4508;48.790;9.028;2023-03-04T08:57:31;0.70;99.90
8947;DHT22;4508;48.790;9.028;2023-03-04T08:59:57;0.70;99.90
8947;DHT22;4508;48.790;9.028;2023-03-04T09:02:24;0.50;99.90
8947;DHT22;4508;48.790;9.028;2023-03-04T09:04:52;0.80;99.90
8947;DHT22;4508;48.790;9.028;2023-03-04T09:07:18;0.90;99.90
8947;DHT22;4508;48.790;9.028;2023-03-04T09:09:45;0.80;99.90
8947;DHT22;4508;48.790;9.028;2023-03-04T09:12:11;0.80;99.90
8947;DHT22;4508;48.790;9.028;2023-03-04T09:14:38;1.00;99.90
8947;DHT22;4508;48.790;9.028;2023-03-04T09:17:05;0.80;99.90
8947;DHT22;4508;48.790;9.028;2023-03-04T09:19:31;1.00;99.90
8947;DHT22;4508;48.790;9.028;2023-03-04T09:21:59;0.90;99.90
8947;DHT22;4508;48.790;9.028;2023-03-04T09:24:26;0.90;99.90
8947;DHT22;4508;48.790;9.028;2023-03-04T09:26:53;0.90;99.90
8947;DHT22;4508;48.790;9.028;2023-03-04T09:29:20;1.50;99.90
8947;DHT22;4508;48.790;9.028;2023-03-04T09:31:46;1.40;99.90
8947;DHT22;4508;48.790;9.028;2023-03-04T09:34:13;1.90;99.90
8947;DHT22;4508;48.790;9.028;2023-03-04T09:36:39;1.70;99.90
8947;DHT22;4508;48.790;9.028;2023-03-04T09:39:07;1.40;99.90
8947;DHT22;4508;48.790;9.028;2023-03-04T09:41:36;2.00;99.90
8947;DHT22;4508;48.790;9.028;2023-03-04T09:44:03;2.00;99.90
8947;DHT22;4508;48.790;9.028;2023-03-04T09:46:33;2.30;99.90
8947;DHT22;4508;48.790;9.028;2023-03-04T09:49:00;2.40;99.90
8947;DHT22;4508;48.790;9.028;2023-03-04T09:51:35;2.50;99.90
8947;DHT22;4508;48.790;9.028;2023-03-04T09:54:05;2.80;99.90
8947;DHT22;4508;48.790;9.028;2023-03-04T09:56:34;2.80;99.90
8947;DHT22;4508;48.790;9.028;2023-03-04T09:59:04;2.70;99.90
8947;DHT22;4508;48.790;9.028;2023-03-04T10:01:33;2.50;99.90
8947;DHT22;4508;48.790;9.028;2023-03-04T10:04:02;2.60;99.90
8947;DHT22;4508;48.790;9.028;2023-03-04T10:06:31;2.70;99.90
8947;DHT22;4508;48.790;9.028;2023-03-04T10:08:59;2.80;99.90
8947;DHT22;4508;48.790;9.028;2023-03-04T10:11:31;2.70;99.90
8947;DHT22;4508;48.790;9.028;2023-03-04T10:14:03;2.30;99.90
8947;DHT22;4508;48.790;9.028;2023-03-04T10:16:32;2.30;99.90
8947;DHT22;4508;48.790;9.028;2023-03-04T10:19:01;2.50;99.90
8947;DHT22;4508;48.790;9.028;2023-03-04T10:21:31;2.80;99.90
8947;DHT22;4508;48.790;9.028;2023-03-04T10:23:59;3.00;99.90
8947;DHT22;4508;48.790;9.028;2023-03-04T10:26:28;3.00;99.90
8947;DHT22;4508;48.790;9.028;2023-03-04T10:28:55;2.90;99.90
8947;DHT22;4508;48.790;9.028;2023-03-04T10:31:27;2.30;99.90
8947;DHT22;4508;48.790;9.028;2023-03-04T10:33:55;2.10;99.90
8947;DHT22;4508;48.790;9.028;2023-03-04T10:36:26;2.60;99.90
8947;DHT22;4508;48.790;9.028;2023-03-04T10:38:58;2.40;99.90
8947;DHT22;4508;48.790;9.028;2023-03-04T10:41:26;2.40;99.90
8947;DHT22;4508;48.790;9.028;2023-03-04T10:43:59;2.40;99.90
8947;DHT22;4508;48.790;9.028;2023-03-04T10:46:27;2.60;99.90
8947;DHT22;4508;48.790;9.028;2023-03-04T10:48:54;2.60;99.90
8947;DHT22;4508;48.790;9.028;2023-03-04T10:51:21;2.30;99.90
8947;DHT22;4508;48.790;9.028;2023-03-04T10:53:49;2.80;99.90
8947;DHT22;4508;48.790;9.028;2023-03-04T10:56:36;2.90;99.90
8947;DHT22;4508;48.790;9.028;2023-03-04T11:01:46;3.20;99.90
8947;DHT22;4508;48.790;9.028;2023-03-04T11:04:15;2.70;99.90
8947;DHT22;4508;48.790;9.028;2023-03-04T11:06:42;2.80;99.90
8947;DHT22;4508;48.790;9.028;2023-03-04T11:09:17;3.00;99.90
8947;DHT22;4508;48.790;9.028;2023-03-04T11:11:45;3.20;99.90
8947;DHT22;4508;48.790;9.028;2023-03-04T11:14:13;3.40;99.90
8947;DHT22;4508;48.790;9.028;2023-03-04T11:16:44;3.20;99.90
8947;DHT22;4508;48.790;9.028;2023-03-04T11:19:18;3.40;99.90
8947;DHT22;4508;48.790;9.028;2023-03-04T11:21:47;3.30;99.90
8947;DHT22;4508;48.790;9.028;2023-03-04T11:24:15;3.40;99.90
8947;DHT22;4508;48.790;9.028;2023-03-04T11:26:46;3.50;99.90
8947;DHT22;4508;48.790;9.028;2023-03-04T11:29:14;3.40;99.90
8947;DHT22;4508;48.790;9.028;2023-03-04T11:31:45;3.50;99.90
8947;DHT22;4508;48.790;9.028;2023-03-04T11:34:14;3.50;99.90
8947;DHT22;4508;48.790;9.028;2023-03-04T11:36:47;3.60;99.90
8947;DHT22;4508;48.790;9.028;2023-03-04T11:39:19;3.60;99.90
8947;DHT22;4508;48.790;9.028;2023-03-04T11:41:49;3.20;99.90
8947;DHT22;4508;48.790;9.028;2023-03-04T11:44:17;3.50;99.90
8947;DHT22;4508;48.790;9.028;2023-03-04T11:46:53;3.50;99.90
8947;DHT22;4508;48.790;9.028;2023-03-04T11:49:36;2.90;99.90
8947;DHT22;4508;48.790;9.028;2023-03-04T11:52:07;3.10;99.90
8947;DHT22;4508;48.790;9.028;2023-03-04T11:54:40;3.30;99.90
8947;DHT22;4508;48.790;9.028;2023-03-04T11:57:11;3.30;99.90
8947;DHT22;4508;48.790;9.028;2023-03-04T11:59:48;3.30;99.90
8947;DHT22;4508;48.790;9.028;2023-03-04T12:02:19;3.20;99.90
8947;DHT22;4508;48.790;9.028;2023-03-04T12:04:58;3.40;99.90
8947;DHT22;4508;48.790;9.028;2023-03-04T12:07:38;3.40;99.90
8947;DHT22;4508;48.790;9.028;2023-03-04T12:10:08;3.60;99.90
8947;DHT22;4508;48.790;9.028;2023-03-04T12:12:43;3.60;99.90
8947;DHT22;4508;48.790;9.028;2023-03-04T12:15:15;3.50;99.90
8947;DHT22;4508;48.790;9.028;2023-03-04T12:17:50;3.40;99.90
8947;DHT22;4508;48.790;9.028;2023-03-04T12:20:25;3.40;99.90
8947;DHT22;4508;48.790;9.028;2023-03-04T12:22:55;3.60;99.90
8947;DHT22;4508;48.790;9.028;2023-03-04T12:25:34;3.70;99.90
8947;DHT22;4508;48.790;9.028;2023-03-04T12:28:07;3.50;99.90
8947;DHT22;4508;48.790;9.028;2023-03-04T12:30:40;3.20;99.90
8947;DHT22;4508;48.790;9.028;2023-03-04T12:33:14;3.60;99.90
8947;DHT22;4508;48.790;9.028;2023-03-04T12:35:46;3.20;99.90
8947;DHT22;4508;48.790;9.028;2023-03-04T12:38:29;3.20;99.90
8947;DHT22;4508;48.790;9.028;2023-03-04T12:41:01;3.30;99.90
8947;DHT22;4508;48.790;9.028;2023-03-04T12:43:34;3.30;99.90
8947;DHT22;4508;48.790;9.028;2023-03-04T12:46:15;3.00;99.90
8947;DHT22;4508;48.790;9.028;2023-03-04T12:48:45;2.60;99.90
8947;DHT22;4508;48.790;9.028;2023-03-04T12:51:16;2.40;99.90
8947;DHT22;4508;48.790;9.028;2023-03-04T12:53:50;2.50;99.90
8947;DHT22;4508;48.790;9.028;2023-03-04T12:56:22;2.90;99.90
8947;DHT22;4508;48.790;9.028;2023-03-04T12:58:50;2.90;99.90
8947;DHT22;4508;48.790;9.028;2023-03-04T13:01:17;3.00;99.90
8947;DHT22;4508;48.790;9.028;2023-03-04T13:03:51;2.80;99.90
8947;DHT22;4508;48.790;9.028;2023-03-04T13:06:22;2.80;99.90
8947;DHT22;4508;48.790;9.028;2023-03-04T13:08:55;3.10;99.90
8947;DHT22;4508;48.790;9.028;2023-03-04T13:14:22;3.00;99.90
8947;DHT22;4508;48.790;9.028;2023-03-04T13:16:49;2.80;99.90
8947;DHT22;4508;48.790;9.028;2023-03-04T13:21:58;2.60;99.90
8947;DHT22;4508;48.790;9.028;2023-03-04T13:24:44;2.40;99.90
8947;DHT22;4508;48.790;9.028;2023-03-04T13:29:56;2.30;99.90
8947;DHT22;4508;48.790;9.028;2023-03-04T13:32:34;2.40;99.90
8947;DHT22;4508;48.790;9.028;2023-03-04T13:35:00;2.20;99.90
8947;DHT22;4508;48.790;9.028;2023-03-04T13:37:29;2.70;99.90
8947;DHT22;4508;48.790;9.028;2023-03-04T13:42:43;2.60;99.90
8947;DHT22;4508;48.790;9.028;2023-03-04T13:45:33;2.90;99.90
8947;DHT22;4508;48.790;9.028;2023-03-04T13:48:00;3.00;99.90
8947;DHT22;4508;48.790;9.028;2023-03-04T13:50:29;3.00;99.90
8947;DHT22;4508;48.790;9.028;2023-03-04T13:55:40;2.40;99.90
8947;DHT22;4508;48.790;9.028;2023-03-04T13:58:16;2.20;99.90
8947;DHT22;4508;48.790;9.028;2023-03-04T14:00:49;2.20;99.90
8947;DHT22;4508;48.790;9.028;2023-03-04T14:03:20;2.40;99.90
8947;DHT22;4508;48.790;9.028;2023-03-04T14:05:47;2.70;99.90
8947;DHT22;4508;48.790;9.028;2023-03-04T14:08:16;2.90;99.90
8947;DHT22;4508;48.790;9.028;2023-03-04T14:10:43;2.80;99.90
8947;DHT22;4508;48.790;9.028;2023-03-04T14:13:09;2.80;99.90
8947;DHT22;4508;48.790;9.028;2023-03-04T14:15:37;2.40;99.90
8947;DHT22;4508;48.790;9.028;2023-03-04T14:18:04;2.70;99.90
8947;DHT22;4508;48.790;9.028;2023-03-04T14:20:31;2.90;99.90
8947;DHT22;4508;48.790;9.028;2023-03-04T14:22:59;2.80;99.90
8947;DHT22;4508;48.790;9.028;2023-03-04T14:25:26;2.90;99.90
8947;DHT22;4508;48.790;9.028;2023-03-04T14:28:01;2.90;99.90
8947;DHT22;4508;48.790;9.028;2023-03-04T14:30:28;2.20;99.90
8947;DHT22;4508;48.790;9.028;2023-03-04T14:32:57;2.00;99.90
8947;DHT22;4508;48.790;9.028;2023-03-04T14:35:24;2.50;99.90
8947;DHT22;4508;48.790;9.028;2023-03-04T14:37:53;2.70;99.90
8947;DHT22;4508;48.790;9.028;2023-03-04T14:40:22;2.40;99.90
8947;DHT22;4508;48.790;9.028;2023-03-04T14:42:52;2.30;99.90
8947;DHT22;4508;48.790;9.028;2023-03-04T14:45:20;2.70;99.90
8947;DHT22;4508;48.790;9.028;2023-03-04T14:47:48;2.50;99.90
8947;DHT22;4508;48.790;9.028;2023-03-04T14:50:17;2.70;99.90
8947;DHT22;4508;48.790;9.028;2023-03-04T14:52:44;2.60;99.90
8947;DHT22;4508;48.790;9.028;2023-03-04T14:55:19;2.70;99.90
8947;DHT22;4508;48.790;9.028;2023-03-04T14:57:47;2.70;99.90
8947;DHT22;4508;48.790;9.028;2023-03-04T15:00:16;2.40;99.90
8947;DHT22;4508;48.790;9.028;2023-03-04T15:02:46;2.20;99.90
8947;DHT22;4508;48.790;9.028;2023-03-04T15:05:15;2.40;99.90
8947;DHT22;4508;48.790;9.028;2023-03-04T15:07:44;2.20;99.90
8947;DHT22;4508;48.790;9.028;2023-03-04T15:10:18;1.90;99.90
8947;DHT22;4508;48.790;9.028;2023-03-04T15:12:49;2.00;99.90
8947;DHT22;4508;48.790;9.028;2023-03-04T15:15:39;2.20;99.90
8947;DHT22;4508;48.790;9.028;2023-03-04T15:18:17;2.00;99.90
8947;DHT22;4508;48.790;9.028;2023-03-04T15:20:51;2.00;99.90
8947;DHT22;4508;48.790;9.028;2023-03-04T15:23:19;2.10;99.90
8947;DHT22;4508;48.790;9.028;2023-03-04T15:25:46;2.40;99.90
8947;DHT22;4508;48.790;9.028;2023-03-04T15:28:16;2.30;99.90
8947;DHT22;4508;48.790;9.028;2023-03-04T15:30:43;2.40;99.90
8947;DHT22;4508;48.790;9.028;2023-03-04T15:33:10;2.40;99.90
8947;DHT22;4508;48.790;9.028;2023-03-04T15:35:37;2.40;99.90
8947;DHT22;4508;48.790;9.028;2023-03-04T15:38:04;2.50;99.90
8947;DHT22;4508;48.790;9.028;2023-03-04T15:40:33;2.70;99.90
8947;DHT22;4508;48.790;9.028;2023-03-04T15:43:01;2.50;99.90
8947;DHT22;4508;48.790;9.028;2023-03-04T15:45:28;2.60;99.90
8947;DHT22;4508;48.790;9.028;2023-03-04T15:47:55;2.60;99.90
8947;DHT22;4508;48.790;9.028;2023-03-04T15:50:21;2.60;99.90
8947;DHT22;4508;48.790;9.028;2023-03-04T15:52:52;2.60;99.90
8947;DHT22;4508;48.790;9.028;2023-03-04T15:55:20;2.70;99.90
8947;DHT22;4508;48.790;9.028;2023-03-04T15:57:49;2.60;99.90
8947;DHT22;4508;48.790;9.028;2023-03-04T16:00:18;2.70;99.90
8947;DHT22;4508;48.790;9.028;2023-03-04T16:02:45;2.70;99.90
8947;DHT22;4508;48.790;9.028;2023-03-04T16:05:12;2.70;99.90
8947;DHT22;4508;48.790;9.028;2023-03-04T16:07:40;2.40;99.90
8947;DHT22;4508;48.790;9.028;2023-03-04T16:10:10;2.60;99.90
8947;DHT22;4508;48.790;9.028;2023-03-04T16:12:38;2.80;99.90
8947;DHT22;4508;48.790;9.028;2023-03-04T16:15:10;2.70;99.90
8947;DHT22;4508;48.790;9.028;2023-03-04T16:17:38;2.40;99.90
8947;DHT22;4508;48.790;9.028;2023-03-04T16:20:09;2.40;99.90
8947;DHT22;4508;48.790;9.028;2023-03-04T16:22:35;2.30;99.90
8947;DHT22;4508;48.790;9.028;2023-03-04T16:25:02;2.20;99.90
8947;DHT22;4508;48.790;9.028;2023-03-04T16:27:29;2.20;99.90
8947;DHT22;4508;48.790;9.028;2023-03-04T16:29:56;2.10;99.90
8947;DHT22;4508;48.790;9.028;2023-03-04T16:32:24;2.00;99.90
8947;DHT22;4508;48.790;9.028;2023-03-04T16:34:50;2.10;99.90
8947;DHT22;4508;48.790;9.028;2023-03-04T16:37:17;2.00;99.90